createdAt,value
2022-09-12T00:00:02.276Z,1016.45
2022-09-12T00:01:03.864Z,1016.38
2022-09-12T00:02:02.523Z,1016.37
2022-09-12T00:03:02.585Z,1016.44
2022-09-12T00:04:01.152Z,1016.4
2022-09-12T00:05:01.762Z,1016.33
2022-09-12T00:06:06.424Z,1016.31
2022-09-12T00:07:01.899Z,1016.3
2022-09-12T00:08:02.097Z,1016.32
2022-09-12T00:09:00.466Z,1016.3
2022-09-12T00:10:00.102Z,1016.29
2022-09-12T00:11:07.411Z,1016.29
2022-09-12T00:12:01.108Z,1016.23
2022-09-12T00:13:01.120Z,1016.21
2022-09-12T00:14:00.712Z,1016.23
2022-09-12T00:15:00.308Z,1016.23
2022-09-12T00:16:10.789Z,1016.22
2022-09-12T00:17:01.038Z,1016.23
2022-09-12T00:18:01.169Z,1016.21
2022-09-12T00:19:00.738Z,1016.23
2022-09-12T00:20:00.342Z,1016.22
2022-09-12T00:21:14.378Z,1016.18
2022-09-12T00:22:01.069Z,1016.21
2022-09-12T00:23:01.098Z,1016.21
2022-09-12T00:24:00.702Z,1016.2
2022-09-12T00:25:00.273Z,1016.17
2022-09-12T00:25:59.861Z,1016.27
2022-09-12T00:26:59.454Z,1016.2
2022-09-12T00:28:02.553Z,1016.2
2022-09-12T00:29:01.113Z,1016.2
2022-09-12T00:30:01.135Z,1016.25
2022-09-12T00:31:01.130Z,1016.24
2022-09-12T00:32:01.854Z,1016.17
2022-09-12T00:33:02.106Z,1016.23
2022-09-12T00:34:01.364Z,1016.23
2022-09-12T00:35:01.060Z,1016.21
2022-09-12T00:36:01.072Z,1016.2
2022-09-12T00:37:01.076Z,1016.25
2022-09-12T00:38:00.607Z,1016.21
2022-09-12T00:39:00.277Z,1016.24
2022-09-12T00:40:00.025Z,1016.18
2022-09-12T00:41:00.424Z,1016.17
2022-09-12T00:42:00.127Z,1016.19
2022-09-12T00:42:59.763Z,1016.19
2022-09-12T00:44:01.418Z,1016.22
2022-09-12T00:45:02.048Z,1016.15
2022-09-12T00:46:01.152Z,1016.19
2022-09-12T00:47:01.257Z,1016.19
2022-09-12T00:48:02.175Z,1016.19
2022-09-12T00:49:00.812Z,1016.19
2022-09-12T00:50:00.469Z,1016.19
2022-09-12T00:51:00.030Z,1016.21
2022-09-12T00:51:59.617Z,1016.19
2022-09-12T00:53:01.738Z,1016.17
2022-09-12T00:54:01.200Z,1016.19
2022-09-12T00:55:01.028Z,1016.2
2022-09-12T00:56:01.374Z,1016.18
2022-09-12T00:57:02.150Z,1016.2
2022-09-12T00:58:01.100Z,1016.26
2022-09-12T00:59:00.761Z,1016.2
2022-09-12T01:00:00.408Z,1016.22
2022-09-12T01:01:00.103Z,1016.24
2022-09-12T01:01:59.912Z,1016.26
2022-09-12T01:02:59.702Z,1016.2
2022-09-12T01:04:01.763Z,1016.25
2022-09-12T01:05:01.412Z,1016.22
2022-09-12T01:06:04.005Z,1016.25
2022-09-12T01:07:01.155Z,1016.3
2022-09-12T01:08:01.078Z,1016.23
2022-09-12T01:09:00.672Z,1016.24
2022-09-12T01:10:00.274Z,1016.22
2022-09-12T01:10:59.962Z,1016.22
2022-09-12T01:11:59.657Z,1016.2
2022-09-12T01:13:02.204Z,1016.18
2022-09-12T01:14:00.692Z,1016.2
2022-09-12T01:15:00.397Z,1016.2
2022-09-12T01:16:00.098Z,1016.19
2022-09-12T01:16:59.806Z,1016.21
2022-09-12T01:18:01.533Z,1016.2
2022-09-12T01:19:00.622Z,1016.19
2022-09-12T01:20:00.635Z,1016.17
2022-09-12T01:21:00.331Z,1016.17
2022-09-12T01:22:00.021Z,1016.16
2022-09-12T01:22:59.726Z,1016.17
2022-09-12T01:24:01.396Z,1016.16
2022-09-12T01:25:01.086Z,1016.13
2022-09-12T01:26:01.098Z,1016.14
2022-09-12T01:27:01.124Z,1016.15
2022-09-12T01:28:01.495Z,1016.16
2022-09-12T01:29:00.787Z,1016.14
2022-09-12T01:30:00.409Z,1016.18
2022-09-12T01:30:59.974Z,1016.11
2022-09-12T01:31:59.642Z,1016.15
2022-09-12T01:33:01.230Z,1016.16
2022-09-12T01:34:00.756Z,1016.12
2022-09-12T01:35:00.363Z,1016.12
2022-09-12T01:35:59.950Z,1016.11
2022-09-12T01:36:59.995Z,1016.07
2022-09-12T01:37:59.988Z,1016.1
2022-09-12T01:38:59.619Z,1016.09
2022-09-12T01:40:01.553Z,1016.12
2022-09-12T01:41:02.133Z,1016.13
2022-09-12T01:42:03.275Z,1016.1
2022-09-12T01:43:01.102Z,1016.11
2022-09-12T01:44:00.682Z,1016.09
2022-09-12T01:45:00.276Z,1016.1
2022-09-12T01:45:59.896Z,1016.09
2022-09-12T01:47:04.879Z,1016.06
2022-09-12T01:48:01.210Z,1016.1
2022-09-12T01:49:00.774Z,1016.08
2022-09-12T01:50:00.364Z,1016.1
2022-09-12T01:51:00.005Z,1016.04
2022-09-12T01:52:08.225Z,1016.02
2022-09-12T01:53:01.072Z,1016.04
2022-09-12T01:54:00.736Z,1016.03
2022-09-12T01:55:00.361Z,1016.08
2022-09-12T01:56:00.076Z,1016.06
2022-09-12T01:57:10.161Z,1016.09
2022-09-12T01:58:01.200Z,1016.09
2022-09-12T01:59:00.729Z,1016.02
2022-09-12T02:00:00.290Z,1016.01
2022-09-12T02:00:59.917Z,1016.02
2022-09-12T02:02:14.078Z,1016.01
2022-09-12T02:03:01.126Z,1016.05
2022-09-12T02:04:00.715Z,1016.06
2022-09-12T02:05:00.940Z,1016.04
2022-09-12T02:06:01.530Z,1015.99
2022-09-12T02:07:16.778Z,1015.98
2022-09-12T02:08:01.103Z,1015.99
2022-09-12T02:09:00.764Z,1015.99
2022-09-12T02:10:00.299Z,1016.01
2022-09-12T02:10:59.939Z,1016
2022-09-12T02:11:59.590Z,1016.02
2022-09-12T02:13:01.257Z,1016.05
2022-09-12T02:14:01.230Z,1016.04
2022-09-12T02:15:01.487Z,1016.06
2022-09-12T02:16:01.170Z,1016.03
2022-09-12T02:17:01.221Z,1016.04
2022-09-12T02:18:01.122Z,1016.05
2022-09-12T02:19:00.686Z,1016.06
2022-09-12T02:20:00.310Z,1016.05
2022-09-12T02:20:59.912Z,1016.06
2022-09-12T02:21:59.490Z,1016.02
2022-09-12T02:23:02.084Z,1016.01
2022-09-12T02:24:01.052Z,1016.02
2022-09-12T02:25:01.075Z,1015.98
2022-09-12T02:26:01.094Z,1016.01
2022-09-12T02:27:01.082Z,1015.98
2022-09-12T02:28:01.055Z,1015.95
2022-09-12T02:29:00.902Z,1015.99
2022-09-12T02:30:01.109Z,1015.94
2022-09-12T02:31:01.109Z,1015.97
2022-09-12T02:32:01.113Z,1016.02
2022-09-12T02:33:01.130Z,1016.01
2022-09-12T02:34:00.702Z,1016
2022-09-12T02:35:00.299Z,1016.03
2022-09-12T02:35:59.996Z,1016.01
2022-09-12T02:36:59.702Z,1016.01
2022-09-12T02:38:01.443Z,1016.02
2022-09-12T02:39:00.997Z,1015.99
2022-09-12T02:40:01.091Z,1016.01
2022-09-12T02:41:01.077Z,1015.99
2022-09-12T02:42:01.095Z,1015.97
2022-09-12T02:43:01.079Z,1015.98
2022-09-12T02:44:00.765Z,1016.02
2022-09-12T02:45:00.375Z,1015.97
2022-09-12T02:46:00.298Z,1015.96
2022-09-12T02:47:00.206Z,1016.02
2022-09-12T02:47:59.825Z,1015.93
2022-09-12T02:49:02.836Z,1015.97
2022-09-12T02:50:01.125Z,1015.98
2022-09-12T02:51:01.126Z,1016
2022-09-12T02:52:01.150Z,1016.03
2022-09-12T02:53:01.041Z,1016.01
2022-09-12T02:54:00.628Z,1016.06
2022-09-12T02:55:00.241Z,1016.04
2022-09-12T02:55:59.820Z,1016.06
2022-09-12T02:57:01.448Z,1016.06
2022-09-12T02:58:02.912Z,1016.05
2022-09-12T02:59:01.082Z,1016.02
2022-09-12T03:00:01.083Z,1016.01
2022-09-12T03:01:01.508Z,1016
2022-09-12T03:02:01.554Z,1016.03
2022-09-12T03:03:01.098Z,1016.06
2022-09-12T03:04:00.695Z,1016.03
2022-09-12T03:05:00.296Z,1016.02
2022-09-12T03:05:59.887Z,1016.01
2022-09-12T03:06:59.479Z,1016.03
2022-09-12T03:08:01.072Z,1016.03
2022-09-12T03:09:00.844Z,1016.03
2022-09-12T03:10:00.434Z,1016.04
2022-09-12T03:11:00.020Z,1016.08
2022-09-12T03:11:59.752Z,1016.11
2022-09-12T03:13:01.741Z,1016.1
2022-09-12T03:14:00.870Z,1016.11
2022-09-12T03:15:01.099Z,1016.08
2022-09-12T03:16:01.101Z,1016.16
2022-09-12T03:17:01.028Z,1016.08
2022-09-12T03:18:01.490Z,1016.12
2022-09-12T03:19:00.800Z,1016.12
2022-09-12T03:20:00.389Z,1016.17
2022-09-12T03:21:00.019Z,1016.12
2022-09-12T03:21:59.606Z,1016.1
2022-09-12T03:23:01.173Z,1016.08
2022-09-12T03:24:00.833Z,1016.08
2022-09-12T03:25:00.723Z,1016.07
2022-09-12T03:26:00.751Z,1016.07
2022-09-12T03:27:00.380Z,1016.07
2022-09-12T03:28:01.208Z,1016.07
2022-09-12T03:29:00.758Z,1016.04
2022-09-12T03:30:00.348Z,1016.07
2022-09-12T03:30:59.968Z,1016.06
2022-09-12T03:31:59.655Z,1016
2022-09-12T03:33:04.971Z,1016.11
2022-09-12T03:34:00.597Z,1016.01
2022-09-12T03:35:00.347Z,1016.09
2022-09-12T03:35:59.875Z,1016.09
2022-09-12T03:37:01.426Z,1016.08
2022-09-12T03:38:06.957Z,1016.1
2022-09-12T03:39:01.028Z,1016.09
2022-09-12T03:40:01.111Z,1016.13
2022-09-12T03:41:01.048Z,1016.1
2022-09-12T03:42:01.054Z,1016.12
2022-09-12T03:43:09.610Z,1016.11
2022-09-12T03:44:00.658Z,1016.15
2022-09-12T03:45:00.243Z,1016.15
2022-09-12T03:45:59.852Z,1016.14
2022-09-12T03:47:01.565Z,1016.15
2022-09-12T03:48:12.702Z,1016.19
2022-09-12T03:49:01.201Z,1016.17
2022-09-12T03:50:01.105Z,1016.18
2022-09-12T03:51:01.115Z,1016.17
2022-09-12T03:52:01.120Z,1016.21
2022-09-12T03:53:17.388Z,1016.24
2022-09-12T03:54:01.443Z,1016.18
2022-09-12T03:55:02.037Z,1016.22
2022-09-12T03:56:01.316Z,1016.26
2022-09-12T03:57:01.074Z,1016.23
2022-09-12T03:58:01.088Z,1016.25
2022-09-12T03:59:00.646Z,1016.26
2022-09-12T04:00:00.269Z,1016.25
2022-09-12T04:01:00.489Z,1016.24
2022-09-12T04:02:00.230Z,1016.25
2022-09-12T04:03:00.005Z,1016.25
2022-09-12T04:03:59.662Z,1016.28
2022-09-12T04:05:01.301Z,1016.28
2022-09-12T04:06:02.126Z,1016.31
2022-09-12T04:07:01.124Z,1016.31
2022-09-12T04:08:01.127Z,1016.31
2022-09-12T04:09:00.716Z,1016.34
2022-09-12T04:10:00.365Z,1016.31
2022-09-12T04:11:00.013Z,1016.35
2022-09-12T04:11:59.598Z,1016.35
2022-09-12T04:13:02.264Z,1016.35
2022-09-12T04:14:00.954Z,1016.35
2022-09-12T04:15:01.071Z,1016.34
2022-09-12T04:16:01.076Z,1016.38
2022-09-12T04:17:01.092Z,1016.35
2022-09-12T04:18:05.617Z,1016.34
2022-09-12T04:19:00.738Z,1016.36
2022-09-12T04:20:00.375Z,1016.33
2022-09-12T04:21:00.042Z,1016.37
2022-09-12T04:21:59.667Z,1016.34
2022-09-12T04:23:01.312Z,1016.38
2022-09-12T04:24:01.013Z,1016.4
2022-09-12T04:25:01.446Z,1016.32
2022-09-12T04:26:02.118Z,1016.33
2022-09-12T04:27:07.185Z,1016.34
2022-09-12T04:28:02.406Z,1016.38
2022-09-12T04:29:01.694Z,1016.32
2022-09-12T04:30:05.966Z,1016.33
2022-09-12T04:31:01.757Z,1016.34
2022-09-12T04:32:05.298Z,1016.31
2022-09-12T04:33:07.981Z,1016.31
2022-09-12T04:34:01.273Z,1016.26
2022-09-12T04:35:01.107Z,1016.28
2022-09-12T04:36:01.104Z,1016.31
2022-09-12T04:37:01.113Z,1016.31
2022-09-12T04:38:01.138Z,1016.31
2022-09-12T04:39:00.796Z,1016.27
2022-09-12T04:40:00.571Z,1016.24
2022-09-12T04:41:00.412Z,1016.27
2022-09-12T04:42:00.119Z,1016.27
2022-09-12T04:42:59.724Z,1016.25
2022-09-12T04:44:01.370Z,1016.46
2022-09-12T04:45:00.947Z,1016.21
2022-09-12T04:46:01.156Z,1016.25
2022-09-12T04:47:01.086Z,1016.28
2022-09-12T04:48:01.128Z,1016.25
2022-09-12T04:49:00.773Z,1016.25
2022-09-12T04:50:00.486Z,1016.22
2022-09-12T04:51:00.182Z,1016.19
2022-09-12T04:51:59.755Z,1016.22
2022-09-12T04:53:01.325Z,1016.22
2022-09-12T04:54:00.905Z,1016.26
2022-09-12T04:55:00.610Z,1016.24
2022-09-12T04:56:00.317Z,1016.3
2022-09-12T04:57:00.003Z,1016.28
2022-09-12T04:57:59.718Z,1016.24
2022-09-12T04:59:01.354Z,1016.3
2022-09-12T05:00:07.229Z,1016.29
2022-09-12T05:01:01.471Z,1016.28
2022-09-12T05:02:01.097Z,1016.29
2022-09-12T05:03:01.037Z,1016.26
2022-09-12T05:04:00.603Z,1016.24
2022-09-12T05:05:00.221Z,1016.25
2022-09-12T05:05:59.884Z,1016.28
2022-09-12T05:06:59.403Z,1016.27
2022-09-12T05:08:01.041Z,1016.27
2022-09-12T05:09:00.629Z,1016.31
2022-09-12T05:10:00.556Z,1016.31
2022-09-12T05:11:00.179Z,1016.33
2022-09-12T05:12:04.552Z,1016.33
2022-09-12T05:13:01.271Z,1016.34
2022-09-12T05:14:02.401Z,1016.34
2022-09-12T05:15:01.998Z,1016.35
2022-09-12T05:16:01.299Z,1016.36
2022-09-12T05:17:01.114Z,1016.38
2022-09-12T05:18:01.074Z,1016.39
2022-09-12T05:19:04.138Z,1016.39
2022-09-12T05:20:01.083Z,1016.37
2022-09-12T05:21:01.094Z,1016.41
2022-09-12T05:22:01.116Z,1016.42
2022-09-12T05:23:01.512Z,1016.43
2022-09-12T05:24:07.269Z,1016.41
2022-09-12T05:25:01.121Z,1016.43
2022-09-12T05:26:01.138Z,1016.47
2022-09-12T05:27:01.126Z,1016.44
2022-09-12T05:28:01.132Z,1016.46
2022-09-12T05:29:09.251Z,1016.44
2022-09-12T05:30:01.044Z,1016.42
2022-09-12T05:31:00.810Z,1016.45
2022-09-12T05:32:01.442Z,1016.41
2022-09-12T05:33:01.061Z,1016.47
2022-09-12T05:34:13.096Z,1016.46
2022-09-12T05:35:01.086Z,1016.51
2022-09-12T05:36:01.083Z,1016.5
2022-09-12T05:37:01.328Z,1016.51
2022-09-12T05:38:01.103Z,1016.51
2022-09-12T05:39:15.063Z,1016.49
2022-09-12T05:40:01.486Z,1016.51
2022-09-12T05:41:01.733Z,1016.52
2022-09-12T05:42:02.063Z,1016.49
2022-09-12T05:43:01.528Z,1016.49
2022-09-12T05:44:00.733Z,1016.47
2022-09-12T05:45:00.320Z,1016.45
2022-09-12T05:46:00.009Z,1016.47
2022-09-12T05:46:59.710Z,1016.4
2022-09-12T05:48:01.771Z,1016.44
2022-09-12T05:49:02.144Z,1016.42
2022-09-12T05:50:01.106Z,1016.44
2022-09-12T05:51:01.079Z,1016.45
2022-09-12T05:52:01.491Z,1016.44
2022-09-12T05:53:01.209Z,1016.47
2022-09-12T05:54:00.796Z,1016.51
2022-09-12T05:55:00.833Z,1016.46
2022-09-12T05:56:00.406Z,1016.5
2022-09-12T05:57:00.143Z,1016.49
2022-09-12T05:58:00.058Z,1016.52
2022-09-12T05:59:00.073Z,1016.51
2022-09-12T05:59:59.745Z,1016.54
2022-09-12T06:01:01.619Z,1016.51
2022-09-12T06:02:03.871Z,1016.5
2022-09-12T06:03:01.067Z,1016.51
2022-09-12T06:04:00.551Z,1016.48
2022-09-12T06:05:00.297Z,1016.5
2022-09-12T06:05:59.832Z,1016.5
2022-09-12T06:07:02.508Z,1016.5
2022-09-12T06:08:01.398Z,1016.49
2022-09-12T06:09:00.977Z,1016.52
2022-09-12T06:10:01.110Z,1016.5
2022-09-12T06:11:02.409Z,1016.48
2022-09-12T06:12:01.548Z,1016.47
2022-09-12T06:13:01.226Z,1016.46
2022-09-12T06:14:01.973Z,1016.49
2022-09-12T06:15:01.314Z,1016.49
2022-09-12T06:16:01.417Z,1016.5
2022-09-12T06:17:01.216Z,1016.52
2022-09-12T06:18:08.009Z,1016.52
2022-09-12T06:19:00.963Z,1016.54
2022-09-12T06:20:00.663Z,1016.51
2022-09-12T06:21:00.269Z,1016.55
2022-09-12T06:21:59.850Z,1016.58
2022-09-12T06:23:01.675Z,1016.5
2022-09-12T06:24:01.346Z,1016.55
2022-09-12T06:25:01.120Z,1016.53
2022-09-12T06:26:01.494Z,1016.59
2022-09-12T06:27:01.432Z,1016.59
2022-09-12T06:28:01.149Z,1016.62
2022-09-12T06:29:00.940Z,1016.62
2022-09-12T06:30:00.711Z,1016.61
2022-09-12T06:31:00.623Z,1016.63
2022-09-12T06:32:00.267Z,1016.6
2022-09-12T06:32:59.981Z,1016.6
2022-09-12T06:33:59.838Z,1016.61
2022-09-12T06:35:02.225Z,1016.63
2022-09-12T06:36:01.461Z,1016.64
2022-09-12T06:37:01.297Z,1016.62
2022-09-12T06:38:01.746Z,1016.65
2022-09-12T06:39:00.910Z,1016.65
2022-09-12T06:40:02.038Z,1016.67
2022-09-12T06:41:01.104Z,1016.7
2022-09-12T06:42:01.764Z,1016.67
2022-09-12T06:43:01.108Z,1016.66
2022-09-12T06:44:00.679Z,1016.64
2022-09-12T06:45:00.733Z,1016.65
2022-09-12T06:46:00.498Z,1016.66
2022-09-12T06:47:00.118Z,1016.65
2022-09-12T06:47:59.705Z,1016.65
2022-09-12T06:49:01.350Z,1016.68
2022-09-12T06:50:01.936Z,1016.68
2022-09-12T06:51:01.059Z,1016.7
2022-09-12T06:52:01.190Z,1016.69
2022-09-12T06:53:01.387Z,1016.72
2022-09-12T06:54:01.154Z,1016.75
2022-09-12T06:55:01.071Z,1016.75
2022-09-12T06:56:01.203Z,1016.76
2022-09-12T06:57:01.907Z,1016.73
2022-09-12T06:58:01.403Z,1016.73
2022-09-12T06:59:00.479Z,1016.72
2022-09-12T07:00:04.562Z,1016.73
2022-09-12T07:01:01.214Z,1016.71
2022-09-12T07:02:01.214Z,1016.7
2022-09-12T07:03:01.928Z,1016.71
2022-09-12T07:04:01.062Z,1016.72
2022-09-12T07:05:08.020Z,1016.69
2022-09-12T07:06:02.241Z,1016.71
2022-09-12T07:07:01.072Z,1016.72
2022-09-12T07:08:01.404Z,1016.68
2022-09-12T07:09:00.705Z,1016.71
2022-09-12T07:10:09.254Z,1016.68
2022-09-12T07:11:01.813Z,1016.69
2022-09-12T07:12:01.105Z,1016.67
2022-09-12T07:13:01.495Z,1016.73
2022-09-12T07:14:01.216Z,1016.74
2022-09-12T07:15:12.863Z,1016.77
2022-09-12T07:16:01.413Z,1016.74
2022-09-12T07:17:01.247Z,1016.79
2022-09-12T07:18:01.139Z,1016.8
2022-09-12T07:19:01.059Z,1016.8
2022-09-12T07:20:15.186Z,1016.79
2022-09-12T07:21:01.926Z,1016.8
2022-09-12T07:22:01.218Z,1016.8
2022-09-12T07:23:01.089Z,1016.81
2022-09-12T07:24:01.099Z,1016.77
2022-09-12T07:25:02.453Z,1016.81
2022-09-12T07:26:01.466Z,1016.84
2022-09-12T07:27:01.298Z,1016.82
2022-09-12T07:28:01.195Z,1016.83
2022-09-12T07:29:25.086Z,1016.84
2022-09-12T07:30:01.123Z,1016.85
2022-09-12T07:31:01.052Z,1016.84
2022-09-12T07:32:01.149Z,1016.83
2022-09-12T07:33:01.140Z,1016.83
2022-09-12T07:34:01.052Z,1016.84
2022-09-12T07:35:01.193Z,1016.83
2022-09-12T07:36:01.384Z,1016.82
2022-09-12T07:37:01.768Z,1016.82
2022-09-12T07:38:01.054Z,1016.84
2022-09-12T07:39:01.500Z,1016.84
2022-09-12T07:40:01.054Z,1016.86
2022-09-12T07:41:01.088Z,1016.88
2022-09-12T07:42:01.179Z,1016.91
2022-09-12T07:43:01.115Z,1016.9
2022-09-12T07:44:00.814Z,1016.87
2022-09-12T07:45:00.612Z,1016.92
2022-09-12T07:46:00.278Z,1016.93
2022-09-12T07:47:00.394Z,1016.89
2022-09-12T07:48:00.481Z,1016.92
2022-09-12T07:49:00.146Z,1016.95
2022-09-12T07:49:59.901Z,1016.94
2022-09-12T07:50:59.634Z,1016.97
2022-09-12T07:52:01.796Z,1016.98
2022-09-12T07:53:02.296Z,1016.94
2022-09-12T07:54:00.963Z,1016.93
2022-09-12T07:55:01.482Z,1016.97
2022-09-12T07:56:00.672Z,1016.96
2022-09-12T07:57:00.693Z,1016.97
2022-09-12T07:58:00.403Z,1016.98
2022-09-12T07:59:00.091Z,1016.97
2022-09-12T07:59:59.777Z,1016.96
2022-09-12T08:01:01.602Z,1017
2022-09-12T08:02:01.195Z,1016.98
2022-09-12T08:03:01.919Z,1017.01
2022-09-12T08:04:01.160Z,1016.98
2022-09-12T08:05:01.141Z,1016.99
2022-09-12T08:06:01.552Z,1016.96
2022-09-12T08:07:01.155Z,1016.99
2022-09-12T08:08:01.972Z,1016.99
2022-09-12T08:09:01.450Z,1017
2022-09-12T08:10:01.771Z,1017
2022-09-12T08:11:01.193Z,1016.99
2022-09-12T08:12:01.105Z,1017
2022-09-12T08:13:01.419Z,1017.01
2022-09-12T08:14:01.046Z,1017.04
2022-09-12T08:15:01.030Z,1017.05
2022-09-12T08:16:01.469Z,1017.04
2022-09-12T08:17:01.344Z,1017.01
2022-09-12T08:18:02.553Z,1017.03
2022-09-12T08:19:02.059Z,1017.03
2022-09-12T08:20:01.217Z,1017.04
2022-09-12T08:21:01.041Z,1017.01
2022-09-12T08:22:01.049Z,1017.03
2022-09-12T08:23:01.050Z,1017.04
2022-09-12T08:24:01.053Z,1017.05
2022-09-12T08:25:01.086Z,1016.99
2022-09-12T08:26:05.754Z,1016.94
2022-09-12T08:27:02.758Z,1016.99
2022-09-12T08:28:01.089Z,1016.98
2022-09-12T08:29:01.106Z,1017.01
2022-09-12T08:30:01.112Z,1016.98
2022-09-12T08:31:00.931Z,1016.99
2022-09-12T08:32:01.320Z,1017.02
2022-09-12T08:33:01.206Z,1017
2022-09-12T08:34:01.232Z,1017.04
2022-09-12T08:35:01.608Z,1017.02
2022-09-12T08:36:02.781Z,1017.07
2022-09-12T08:37:01.143Z,1017.05
2022-09-12T08:38:01.741Z,1017.02
2022-09-12T08:39:01.162Z,1017
2022-09-12T08:40:00.921Z,1017.04
2022-09-12T08:41:06.363Z,1017.02
2022-09-12T08:42:01.572Z,1017.03
2022-09-12T08:43:02.093Z,1017.04
2022-09-12T08:44:01.494Z,1017.05
2022-09-12T08:45:01.205Z,1017.02
2022-09-12T08:46:07.856Z,1017.05
2022-09-12T08:47:01.125Z,1017.04
2022-09-12T08:48:01.147Z,1017.03
2022-09-12T08:49:01.141Z,1017.03
2022-09-12T08:50:01.140Z,1017.05
2022-09-12T08:51:09.386Z,1017.09
2022-09-12T08:52:01.274Z,1017.04
2022-09-12T08:53:02.067Z,1017.07
2022-09-12T08:54:01.414Z,1017.04
2022-09-12T08:55:01.444Z,1017.03
2022-09-12T08:56:12.691Z,1017.06
2022-09-12T08:57:01.078Z,1017.06
2022-09-12T08:58:01.025Z,1017.05
2022-09-12T08:59:01.098Z,1017.04
2022-09-12T09:00:01.125Z,1017.04
2022-09-12T09:01:15.927Z,1017.05
2022-09-12T09:02:01.533Z,1017.05
2022-09-12T09:03:01.513Z,1017.05
2022-09-12T09:04:01.402Z,1017.04
2022-09-12T09:05:01.126Z,1017.07
2022-09-12T09:06:01.139Z,1017.07
2022-09-12T09:07:01.146Z,1017.08
2022-09-12T09:08:01.045Z,1017.12
2022-09-12T09:09:01.086Z,1017.09
2022-09-12T09:10:01.110Z,1017.06
2022-09-12T09:11:01.133Z,1017.07
2022-09-12T09:12:01.123Z,1017.06
2022-09-12T09:13:00.775Z,1017.06
2022-09-12T09:14:04.456Z,1017.07
2022-09-12T09:15:01.465Z,1017.01
2022-09-12T09:16:02.110Z,1017.02
2022-09-12T09:17:01.101Z,1017.04
2022-09-12T09:18:00.728Z,1017.11
2022-09-12T09:19:00.358Z,1017.07
2022-09-12T09:19:59.980Z,1017.13
2022-09-12T09:20:59.633Z,1017.13
2022-09-12T09:22:01.448Z,1017.09
2022-09-12T09:23:02.006Z,1017.08
2022-09-12T09:24:01.092Z,1017.07
2022-09-12T09:25:01.057Z,1017.1
2022-09-12T09:26:01.076Z,1017.08
2022-09-12T09:27:01.068Z,1017.09
2022-09-12T09:28:01.068Z,1017.03
2022-09-12T09:29:01.119Z,1017.03
2022-09-12T09:30:01.040Z,1017
2022-09-12T09:31:00.766Z,1016.95
2022-09-12T09:32:00.380Z,1016.99
2022-09-12T09:32:59.969Z,1016.98
2022-09-12T09:33:59.584Z,1016.95
2022-09-12T09:35:01.177Z,1016.96
2022-09-12T09:36:00.793Z,1016.97
2022-09-12T09:37:00.410Z,1016.98
2022-09-12T09:37:59.999Z,1016.96
2022-09-12T09:38:59.606Z,1017
2022-09-12T09:40:01.329Z,1016.99
2022-09-12T09:41:01.961Z,1017.02
2022-09-12T09:42:01.148Z,1017.02
2022-09-12T09:43:01.456Z,1016.97
2022-09-12T09:44:01.171Z,1017.01
2022-09-12T09:45:01.100Z,1017.05
2022-09-12T09:46:01.133Z,1017.02
2022-09-12T09:47:01.101Z,1017.03
2022-09-12T09:48:01.101Z,1016.98
2022-09-12T09:49:02.580Z,1017.04
2022-09-12T09:50:02.098Z,1017.03
2022-09-12T09:51:01.527Z,1017.03
2022-09-12T09:52:03.052Z,1017
2022-09-12T09:53:01.132Z,1017.05
2022-09-12T09:54:01.164Z,1016.98
2022-09-12T09:55:01.053Z,1017.03
2022-09-12T09:56:01.062Z,1017
2022-09-12T09:57:01.207Z,1016.98
2022-09-12T09:58:01.456Z,1017
2022-09-12T09:59:01.087Z,1017.01
2022-09-12T10:00:01.080Z,1017
2022-09-12T10:01:01.247Z,1017.04
2022-09-12T10:02:01.093Z,1016.99
2022-09-12T10:03:01.227Z,1017.01
2022-09-12T10:04:01.117Z,1017.03
2022-09-12T10:05:01.121Z,1017.02
2022-09-12T10:06:01.211Z,1017
2022-09-12T10:07:01.424Z,1016.98
2022-09-12T10:08:01.033Z,1017.01
2022-09-12T10:09:01.067Z,1016.96
2022-09-12T10:10:01.047Z,1016.96
2022-09-12T10:11:01.050Z,1016.93
2022-09-12T10:12:01.760Z,1016.93
2022-09-12T10:13:01.069Z,1016.93
2022-09-12T10:14:01.122Z,1016.92
2022-09-12T10:15:01.118Z,1016.91
2022-09-12T10:16:00.799Z,1016.91
2022-09-12T10:17:01.096Z,1016.91
2022-09-12T10:18:01.089Z,1016.88
2022-09-12T10:19:01.119Z,1016.87
2022-09-12T10:20:22.253Z,1016.83
2022-09-12T10:21:01.135Z,1016.8
2022-09-12T10:22:01.130Z,1016.86
2022-09-12T10:23:01.467Z,1016.81
2022-09-12T10:24:01.646Z,1016.75
2022-09-12T10:25:01.758Z,1016.82
2022-09-12T10:26:02.056Z,1016.83
2022-09-12T10:27:04.105Z,1016.8
2022-09-12T10:28:01.183Z,1016.76
2022-09-12T10:29:01.073Z,1016.78
2022-09-12T10:30:01.578Z,1016.78
2022-09-12T10:31:00.916Z,1016.8
2022-09-12T10:32:08.184Z,1016.78
2022-09-12T10:33:01.057Z,1016.74
2022-09-12T10:34:01.112Z,1016.75
2022-09-12T10:35:01.030Z,1016.75
2022-09-12T10:36:01.176Z,1016.74
2022-09-12T10:37:09.969Z,1016.75
2022-09-12T10:38:01.121Z,1016.77
2022-09-12T10:39:01.533Z,1016.72
2022-09-12T10:40:01.086Z,1016.71
2022-09-12T10:41:01.160Z,1016.73
2022-09-12T10:42:13.997Z,1016.76
2022-09-12T10:43:01.061Z,1016.74
2022-09-12T10:44:01.072Z,1016.76
2022-09-12T10:45:01.044Z,1016.75
2022-09-12T10:46:01.084Z,1016.72
2022-09-12T10:47:15.979Z,1016.74
2022-09-12T10:48:05.473Z,1016.73
2022-09-12T10:49:01.181Z,1016.7
2022-09-12T10:50:01.130Z,1016.65
2022-09-12T10:51:01.122Z,1016.69
2022-09-12T10:52:01.112Z,1016.66
2022-09-12T10:53:01.762Z,1016.64
2022-09-12T10:54:01.528Z,1016.69
2022-09-12T10:55:01.148Z,1016.69
2022-09-12T10:56:01.151Z,1016.69
2022-09-12T10:57:01.044Z,1016.66
2022-09-12T10:58:01.155Z,1016.62
2022-09-12T10:59:01.062Z,1016.66
2022-09-12T11:00:01.079Z,1016.66
2022-09-12T11:01:01.408Z,1016.65
2022-09-12T11:02:01.487Z,1016.65
2022-09-12T11:03:01.111Z,1016.65
2022-09-12T11:04:01.110Z,1016.65
2022-09-12T11:05:01.105Z,1016.59
2022-09-12T11:06:01.114Z,1016.65
2022-09-12T11:07:01.117Z,1016.68
2022-09-12T11:08:01.434Z,1016.65
2022-09-12T11:09:01.122Z,1016.6
2022-09-12T11:10:01.054Z,1016.58
2022-09-12T11:11:01.161Z,1016.63
2022-09-12T11:12:01.048Z,1016.55
2022-09-12T11:13:01.055Z,1016.53
2022-09-12T11:14:01.083Z,1016.6
2022-09-12T11:15:01.522Z,1016.6
2022-09-12T11:16:00.837Z,1016.63
2022-09-12T11:17:00.552Z,1016.6
2022-09-12T11:18:00.282Z,1016.54
2022-09-12T11:19:00.076Z,1016.5
2022-09-12T11:19:59.755Z,1016.52
2022-09-12T11:21:02.189Z,1016.5
2022-09-12T11:22:01.109Z,1016.5
2022-09-12T11:23:01.146Z,1016.52
2022-09-12T11:24:01.144Z,1016.54
2022-09-12T11:25:01.048Z,1016.52
2022-09-12T11:26:01.338Z,1016.55
2022-09-12T11:27:01.141Z,1016.48
2022-09-12T11:28:01.120Z,1016.49
2022-09-12T11:29:01.045Z,1016.45
2022-09-12T11:30:01.078Z,1016.44
2022-09-12T11:31:01.202Z,1016.47
2022-09-12T11:32:01.872Z,1016.46
2022-09-12T11:33:01.759Z,1016.38
2022-09-12T11:34:01.905Z,1016.39
2022-09-12T11:35:01.399Z,1016.41
2022-09-12T11:36:01.101Z,1016.43
2022-09-12T11:37:00.689Z,1016.43
2022-09-12T11:38:00.285Z,1016.4
2022-09-12T11:38:59.974Z,1016.41
2022-09-12T11:39:59.590Z,1016.35
2022-09-12T11:41:01.705Z,1016.4
2022-09-12T11:42:01.138Z,1016.41
2022-09-12T11:43:00.840Z,1016.39
2022-09-12T11:44:00.543Z,1016.36
2022-09-12T11:45:00.221Z,1016.4
2022-09-12T11:45:59.933Z,1016.37
2022-09-12T11:46:59.530Z,1016.34
2022-09-12T11:48:02.404Z,1016.31
2022-09-12T11:49:01.480Z,1016.33
2022-09-12T11:50:01.191Z,1016.29
2022-09-12T11:51:01.094Z,1016.33
2022-09-12T11:52:01.099Z,1016.32
2022-09-12T11:53:01.108Z,1016.33
2022-09-12T11:54:01.122Z,1016.3
2022-09-12T11:55:01.144Z,1016.32
2022-09-12T11:56:01.148Z,1016.32
2022-09-12T11:57:00.812Z,1016.25
2022-09-12T11:58:00.521Z,1016.29
2022-09-12T11:59:00.116Z,1016.32
2022-09-12T11:59:59.702Z,1016.31
2022-09-12T12:01:01.731Z,1016.29
2022-09-12T12:02:02.477Z,1016.31
2022-09-12T12:03:01.065Z,1016.25
2022-09-12T12:04:01.225Z,1016.31
2022-09-12T12:05:01.148Z,1016.34
2022-09-12T12:06:00.792Z,1016.29
2022-09-12T12:07:00.371Z,1016.25
2022-09-12T12:08:02.694Z,1016.24
2022-09-12T12:09:02.679Z,1016.25